Tiempo atmosférico en la estación meteorológica de Miranda De Ebro, Burgos (512 m.)



Fecha
DESCASC
Temp. máxima en grados centígrados (hora)
DESCASC
Temp. mínima en grados centígrados (hora)
DESCASC
Temp. media en grados centígrados
DESCASC
Racha de viento máxima en m/sg (hora)
DESCASC
Velocidad máxima media en intervalos de 10 minutos(hora)
DESCASC
Precipitaciones diarias en mm
DESCASC
Precipitaciones de 00:00 a 06:00 en mm
DESCASC
Precipitaciones de 06:00 a 12:00 en mm
DESCASC
Precipitaciones de 12:00 a 18:00 en mm
DESCASC
Precipitaciones de 18:00 a 24:00 en mm
DESCASC
18-08-2019 30.7 (13:00) 12.1 (07:00) 21.4 10 (16:40) 4.17 (16:30) 0 0 0 0 0
17-08-2019 37.7 (18:10) 11.1 (07:30) 24.4 8.89 (16:20) 4.44 (16:20) 0 0 0 0 0
16-08-2019 35.6 (17:40) 10.3 (07:10) 22.9 7.78 (18:40) 3.89 (20:10) 0 0 0 0 0
15-08-2019 26.5 (16:10) 16.2 (00:00) 21.4 7.78 (18:50) 4.44 (18:50) 0.2 0 0.2 0 0
14-08-2019 32 (15:50) 9.2 (00:00) 20.6 8.61 (16:50) 4.17 (17:30) 0 0 0 0 0
13-08-2019 25.3 (16:10) 10.9 (00:00) 18.1 8.61 (17:50) 3.89 (17:10) 0 0 0 0 0
12-08-2019 23.6 (16:00) 9.6 (00:00) 16.6 9.72 (18:10) 4.17 (16:30) 0 0 0 0 0
11-08-2019 24.1 (16:20) 15.1 (00:00) 19.6 8.06 (17:40) 5 (18:10) 4.8 1.8 3 0 0
10-08-2019 28.5 (16:00) 13.9 (00:00) 21.2 8.33 (16:40) 4.72 (18:00) 0 0 0 0 0
09-08-2019 31.2 (18:00) 19.2 (00:00) 25.2 13.06 (12:50) 6.67 (18:10) 0.2 0 0 0 0.2
08-08-2019 34.8 (19:00) 19.3 (00:00) 27 11.39 (14:40) 5.83 (12:30) 0 0 0 0 0
07-08-2019 31.5 (16:10) 17.3 (00:00) 24.4 11.67 (19:50) 6.67 (19:50) 0.8 0.2 0 0 0.6
06-08-2019 33 (16:40) 13.7 (00:00) 23.3 9.17 (17:10) 4.72 (17:10) 0 0 0 0 0
05-08-2019 30.4 (16:30) 13.7 (00:00) 22 8.33 (17:50) 4.72 (17:50) 0 0 0 0 0
04-08-2019 30.5 (15:50) 18.6 (00:00) 24.6 8.89 (18:10) 4.72 (17:40) 0 0 0 0 0
03-08-2019 35.3 (16:50) 12.8 (00:00) 24 8.89 (19:40) 4.72 (19:40) 0 0 0 0 0
02-08-2019 29.4 (17:50) 17 (00:00) 23.2 6.94 (16:00) 3.61 (16:00) 0 0 0 0 0
01-08-2019 24.2 (15:10) 15.1 (00:00) 19.7 7.22 (05:10) 3.89 (18:40) 16.6 10.8 5.8 0 0
31-07-2019 26.1 (17:40) 8.4 (00:00) 17.3 6.67 (19:50) 3.33 (19:50) 0 0 0 0 0
30-07-2019 25 (17:10) 14.9 (00:00) 19.9 9.17 (17:40) 5 (17:50) 0 0 0 0 0
29-07-2019 31.5 (16:40) 10.4 (00:00) 20.9 11.67 (17:10) 6.11 (16:00) 0 0 0 0 0
28-07-2019 27.1 (18:20) 11.1 (00:00) 19.1 6.39 (20:10) 3.61 (19:40) 0 0 0 0 0
27-07-2019 19.1 (16:10) 14.1 (00:00) 16.6 6.67 (18:00) 3.61 (17:30) 4.8 0 1.6 3.2 0
26-07-2019 20.7 (13:30) 16.6 (00:00) 18.7 7.78 (07:40) 3.61 (07:40) 7 1.8 5.2 0 0
25-07-2019 38.2 (16:30) 15.8 (00:00) 27 11.67 (18:40) 6.11 (18:40) 0.4 0 0 0 0.4
24-07-2019 39.3 (16:00) 16.1 (00:00) 27.7 13.06 (17:40) 4.44 (16:20) 4.2 0 0 4.2 0
23-07-2019 39.4 (17:00) 17.1 (00:00) 28.3 16.39 (18:10) 8.61 (18:30) 2.6 0 0 0 2.6
22-07-2019 39.4 (17:10) 19.6 (00:00) 29.5 8.06 (19:00) 4.44 (17:40) 0 0 0 0 0
21-07-2019 32.9 (17:50) 19.2 (00:00) 26.1 8.89 (19:10) 4.72 (18:50) 0 0 0 0 0

Gráficas

Temp. máximas Temp. mínimas Temp. medias Precipitaciones Rachas de viento máximas Velocidades máximas media en intervalos de 10 minutos

Datos horarios

Fecha y hora oficial Temperatura (ºC) Velocidad del viento (km/h) Dirección del viento Racha (km/h) Dirección de racha Precipitación (mm) Presión (hPa) Tendencia (hPa) Humedad (%)
2019-08-19 23:00:00 16.2 5 Nordeste 13 Nordeste 0 -- -- 80
2019-08-19 22:00:00 16.6 5 Norte 17 Norte 0 -- -- 78
2019-08-19 21:00:00 17.2 6 Norte 18 Norte 0 -- -- 74
2019-08-19 20:00:00 18.1 6 Norte 23 Norte 0 -- -- 69
2019-08-19 19:00:00 19.8 7 Norte 21 Norte 0 -- -- 62
2019-08-19 18:00:00 20.4 8 Norte 22 Norte 0 -- -- 58
2019-08-19 17:00:00 19.9 11 Nordeste 24 Nordeste 0 -- -- 63
2019-08-19 16:00:00 20.1 9 Nordeste 24 Nordeste 0 -- -- 63
2019-08-19 15:00:00 19.1 11 Nordeste 24 Nordeste 0 -- -- 66
2019-08-19 14:00:00 19.5 8 Nordeste 23 Nordeste 0 -- -- 66
2019-08-19 13:00:00 18.1 5 Norte 19 Nordeste 0 -- -- 72
2019-08-19 12:00:00 17.5 6 Nordeste 16 Nordeste 0 -- -- 73
2019-08-19 11:00:00 16.5 5 Norte 17 Nordeste 0 -- -- 77
2019-08-19 10:00:00 16.4 5 Norte 16 Norte 0 -- -- 77
2019-08-19 09:00:00 15.9 4 Nordeste 10 Nordeste 0 -- -- 77
2019-08-19 08:00:00 15.4 2 Norte 10 Nordeste 0 -- -- 81
2019-08-19 07:00:00 15.4 3 Norte 15 Nordeste 0 -- -- 81
2019-08-19 06:00:00 15.6 5 Nordeste 15 Nordeste 0 -- -- 79
2019-08-19 05:00:00 15.6 8 Nordeste 14 Nordeste 0 -- -- 77
2019-08-19 04:00:00 15.7 6 Nordeste 14 Nordeste 0 -- -- 77
2019-08-19 03:00:00 15.5 6 Nordeste 14 Este 0 -- -- 80
2019-08-19 02:00:00 15.9 3 Norte 9 Nordeste 0 -- -- 78
2019-08-19 01:00:00 16 4 Norte 8 Norte 0 -- -- 79
2019-08-19 00:00:00 16.3 3 Norte 13 Norte 0 -- -- 77
2019-08-18 23:00:00 16.8 7 Norte 15 Norte 0 -- -- 76
2019-08-18 22:00:00 17.3 8 Noroeste 19 Noroeste 0 -- -- 81
2019-08-18 21:00:00 18.6 8 Norte 21 Norte 0 -- -- 74
2019-08-18 20:00:00 19.2 13 Noroeste 24 Noroeste 0 -- -- 73
2019-08-18 19:00:00 20.9 10 Nordeste 31 Nordeste 0 -- -- 69
2019-08-18 18:00:00 23.3 10 Norte 34 Nordeste 0 -- -- 65
2019-08-18 17:00:00 27.6 13 Norte 36 Nordeste 0 -- -- 53
2019-08-18 16:00:00 29.3 13 Nordeste 31 Norte 0 -- -- 49
2019-08-18 15:00:00 29.5 11 Nordeste 30 Nordeste 0 -- -- 47
2019-08-18 14:00:00 29.6 12 Este 23 Este 0 -- -- 47
2019-08-18 13:00:00 30.7 5 Sudeste 9 Oeste 0 -- -- 36
2019-08-18 12:00:00 27.2 3 Sur 9 Noroeste 0 -- -- 46
2019-08-18 11:00:00 25.3 3 Norte 10 Sudeste 0 -- -- 57
2019-08-18 10:00:00 22.2 3 Norte 6 Este 0 -- -- 63
2019-08-18 09:00:00 17.1 2 Noroeste 8 Noroeste 0 -- -- 82
2019-08-18 08:00:00 12.9 4 Oeste 8 Oeste 0 -- -- 92
2019-08-18 07:00:00 12.1 0 Calma 8 Oeste 0 -- -- 90
2019-08-18 06:00:00 13.3 4 Oeste 7 Oeste 0 -- -- 90
2019-08-18 05:00:00 13.6 0 Calma 4 Noroeste 0 -- -- 89
2019-08-18 04:00:00 14.2 2 Noroeste 6 Oeste 0 -- -- 88
2019-08-18 03:00:00 15.2 3 Oeste 7 Oeste 0 -- -- 84
2019-08-18 02:00:00 16.1 0 Calma 5 Noroeste 0 -- -- 82
2019-08-18 01:00:00 17.8 4 Oeste 9 Oeste 0 -- -- 77
2019-08-18 00:00:00 20 3 Sudoeste 9 Nordeste 0 -- -- 70
2019-08-17 23:00:00 22 5 Nordeste 15 Nordeste 0 -- -- 66
2019-08-17 22:00:00 23.4 6 Este 15 Nordeste 0 -- -- 61
2019-08-17 21:00:00 26.6 6 Nordeste 19 Este 0 -- -- 51
2019-08-17 20:00:00 30.9 10 Nordeste 30 Nordeste 0 -- -- 40
2019-08-17 19:00:00 33.6 12 Este 24 Este 0 -- -- 33
2019-08-17 18:00:00 37 14 Oeste 31 Oeste 0 -- -- 18
2019-08-17 17:00:00 36.1 16 Oeste 32 Sudoeste 0 -- -- 19
2019-08-17 16:00:00 36.2 7 Noroeste 19 Sudoeste 0 -- -- 20
2019-08-17 15:00:00 34.4 5 Norte 13 Sudeste 0 -- -- 28
2019-08-17 14:00:00 32.4 5 Este 15 Sudeste 0 -- -- 32
2019-08-17 13:00:00 30.2 4 Este 17 Sudeste 0 -- -- 37
2019-08-17 12:00:00 27 6 Este 13 Este 0 -- -- 42
2019-08-17 11:00:00 23.9 3 Sudoeste 9 Oeste 0 -- -- 50
2019-08-17 10:00:00 19.7 4 Sudoeste 9 Sur 0 -- -- 60
2019-08-17 09:00:00 16.1 2 Noroeste 5 Norte 0 -- -- 74
2019-08-17 08:00:00 11.9 2 Noroeste 5 Oeste 0 -- -- 89
2019-08-17 07:00:00 11.4 0 Calma 4 Noroeste 0 -- -- 89
2019-08-17 06:00:00 12 4 Noroeste 9 Oeste 0 -- -- 86
2019-08-17 05:00:00 12.9 2 Noroeste 6 Oeste 0 -- -- 84
2019-08-17 04:00:00 14.5 4 Oeste 7 Oeste 0 -- -- 76
2019-08-17 03:00:00 14.9 4 Noroeste 8 Oeste 0 -- -- 75
2019-08-17 02:00:00 17.1 3 Oeste 5 Sudeste 0 -- -- 66
2019-08-17 01:00:00 19.2 0 Calma 14 Nordeste 0 -- -- 59
2019-08-17 00:00:00 20.5 8 Este 20 Nordeste 0 -- -- 57
2019-08-16 23:00:00 21.9 8 Nordeste 19 Nordeste 0 -- -- 55
2019-08-16 22:00:00 23.3 9 Este 18 Este 0 -- -- 45
2019-08-16 21:00:00 25.1 5 Este 24 Nordeste 0 -- -- 46
2019-08-16 20:00:00 28.8 12 Nordeste 25 Nordeste 0 -- -- 41
2019-08-16 19:00:00 31.5 9 Nordeste 28 Nordeste 0 -- -- 39
2019-08-16 18:00:00 35.5 8 Sudeste 19 Sudeste 0 -- -- 30
2019-08-16 17:00:00 35.3 6 Sudeste 17 Sudeste 0 -- -- 31
2019-08-16 16:00:00 33.6 8 Este 17 Sudeste 0 -- -- 33
2019-08-16 15:00:00 32.1 8 Este 18 Sudeste 0 -- -- 36
2019-08-16 14:00:00 30.1 5 Este 14 Sudeste 0 -- -- 38
2019-08-16 13:00:00 27.2 3 Sudeste 11 Este 0 -- -- 43
2019-08-16 12:00:00 23.3 5 Este 10 Este 0 -- -- 54
2019-08-16 11:00:00 20.9 3 Oeste 7 Noroeste 0 -- -- 61
2019-08-16 10:00:00 18.2 3 Oeste 9 Noroeste 0 -- -- 71
2019-08-16 09:00:00 14.7 2 Norte 4 Norte 0 -- -- 85
2019-08-16 08:00:00 10.9 2 Sudeste 5 Noroeste 0 -- -- 94
2019-08-16 07:00:00 10.4 0 Calma 5 Oeste 0 -- -- 93
2019-08-16 06:00:00 11.2 4 Oeste 7 Sudoeste 0 -- -- 92
2019-08-16 05:00:00 10.8 3 Noroeste 5 Noroeste 0 -- -- 92
2019-08-16 04:00:00 11.4 0 Calma 5 Oeste 0 -- -- 91
2019-08-16 03:00:00 12.4 2 Noroeste 5 Oeste 0 -- -- 88
2019-08-16 02:00:00 13.3 4 Oeste 7 Oeste 0 -- -- 87
2019-08-16 01:00:00 14 4 Norte 8 Nordeste 0 -- -- 84
2019-08-16 00:00:00 16.2 4 Nordeste 13 Nordeste 0 -- -- 79
2019-08-15 23:00:00 17.3 8 Este 17 Nordeste 0 -- -- 74
2019-08-15 22:00:00 18.3 8 Nordeste 16 Nordeste 0 -- -- 69
2019-08-15 21:00:00 19.8 6 Nordeste 21 Nordeste 0 -- -- 66
2019-08-15 20:00:00 22.1 10 Nordeste 26 Nordeste 0 -- -- 60
2019-08-15 19:00:00 23.3 12 Nordeste 28 Nordeste 0 -- -- 57
2019-08-15 18:00:00 24.6 13 Nordeste 27 Nordeste 0 -- -- 53
2019-08-15 17:00:00 25.9 11 Nordeste 25 Este 0 -- -- 48
2019-08-15 16:00:00 26.1 9 Nordeste 24 Nordeste 0 -- -- 47
2019-08-15 15:00:00 25.5 9 Nordeste 22 Nordeste 0 -- -- 47
2019-08-15 14:00:00 24.9 7 Norte 21 Nordeste 0 -- -- 50
2019-08-15 13:00:00 23.5 8 Este 18 Este 0 -- -- 57
2019-08-15 12:00:00 20.5 8 Nordeste 19 Nordeste 0 -- -- 67
2019-08-15 11:00:00 18.8 7 Nordeste 21 Este 0 -- -- 79
2019-08-15 10:00:00 17.6 11 Nordeste 19 Este 0 -- -- 85
2019-08-15 09:00:00 17.3 6 Nordeste 13 Nordeste 0 -- -- 93
2019-08-15 08:00:00 16.8 3 Oeste 6 Sudoeste 0.2 -- -- 94
2019-08-15 07:00:00 17.1 2 Norte 5 Noroeste 0 -- -- 87
2019-08-15 06:00:00 17.4 3 Noroeste 6 Oeste 0 -- -- 83
2019-08-15 05:00:00 17.2 4 Noroeste 7 Oeste 0 -- -- 83
2019-08-15 04:00:00 17.1 4 Oeste 10 Oeste 0 -- -- 83
2019-08-15 03:00:00 17.1 4 Oeste 8 Sudoeste 0 -- -- 84
2019-08-15 02:00:00 17.6 5 Oeste 9 Oeste 0 -- -- 83
2019-08-15 01:00:00 17.1 3 Noroeste 4 Nordeste 0 -- -- 87
2019-08-15 00:00:00 18.1 2 Norte 15 Este 0 -- -- 82
2019-08-14 23:00:00 19.5 7 Nordeste 22 Nordeste 0 -- -- 75
2019-08-14 22:00:00 20.5 10 Este 24 Este 0 -- -- 66
2019-08-14 21:00:00 22.7 8 Nordeste 25 Nordeste 0 -- -- 52
2019-08-14 20:00:00 25.4 12 Nordeste 28 Nordeste 0 -- -- 47
2019-08-14 19:00:00 27.3 10 Norte 28 Nordeste 0 -- -- 46
2019-08-14 18:00:00 29.1 13 Nordeste 29 Nordeste 0 -- -- 40
2019-08-14 17:00:00 30 12 Nordeste 31 Nordeste 0 -- -- 38
2019-08-14 16:00:00 32 10 Norte 23 Nordeste 0 -- -- 32
2019-08-14 15:00:00 30.7 7 Norte 21 Norte 0 -- -- 32
2019-08-14 14:00:00 30.5 6 Noroeste 16 Noroeste 0 -- -- 33
2019-08-14 13:00:00 27.6 4 Noroeste 13 Norte 0 -- -- 38
2019-08-14 12:00:00 24.1 4 Nordeste 8 Este 0 -- -- 47
2019-08-14 11:00:00 21.2 3 Este 8 Noroeste 0 -- -- 56
2019-08-14 10:00:00 18.2 3 Noroeste 9 Noroeste 0 -- -- 66
2019-08-14 09:00:00 13.4 4 Noroeste 6 Noroeste 0 -- -- 82
2019-08-14 08:00:00 9.5 3 Noroeste 6 Sudoeste 0 -- -- 94
2019-08-14 07:00:00 9.4 0 Calma 6 Sudoeste 0 -- -- 93
2019-08-14 06:00:00 10 3 Noroeste 9 Sur 0 -- -- 92
2019-08-14 05:00:00 10.2 0 Calma 5 Noroeste 0 -- -- 91
2019-08-14 04:00:00 11 2 Oeste 5 Noroeste 0 -- -- 89
2019-08-14 03:00:00 11.1 3 Noroeste 7 Noroeste 0 -- -- 88
2019-08-14 02:00:00 12 4 Noroeste 6 Noroeste 0 -- -- 83
2019-08-14 01:00:00 14.1 2 Noroeste 14 Nordeste 0 -- -- 79
2019-08-14 00:00:00 15.5 5 Nordeste 10 Nordeste 0 -- -- 74
2019-08-13 23:00:00 16.8 5 Este 22 Este 0 -- -- 68
2019-08-13 22:00:00 17.8 8 Este 18 Este 0 -- -- 64
2019-08-13 21:00:00 19.4 9 Nordeste 26 Este 0 -- -- 58
2019-08-13 20:00:00 21.8 12 Nordeste 23 Nordeste 0 -- -- 51
2019-08-13 19:00:00 24.3 7 Nordeste 23 Nordeste 0 -- -- 44
2019-08-13 18:00:00 24.2 11 Nordeste 31 Este 0 -- -- 43
2019-08-13 17:00:00 24.5 10 Nordeste 25 Nordeste 0 -- -- 44
2019-08-13 16:00:00 25.1 8 Sudeste 22 Este 0 -- -- 41
2019-08-13 15:00:00 24.5 8 Sudeste 21 Sudeste 0 -- -- 42
2019-08-13 14:00:00 23.3 6 Este 18 Norte 0 -- -- 44
2019-08-13 13:00:00 22.6 3 Sudoeste 13 Este 0 -- -- 45
2019-08-13 12:00:00 21.3 6 Este 15 Este 0 -- -- 50
2019-08-13 11:00:00 19.9 4 Sudeste 9 Sudeste 0 -- -- 57
2019-08-13 10:00:00 17.4 2 Noroeste 9 Oeste 0 -- -- 66
2019-08-13 09:00:00 13.4 6 Oeste 9 Oeste 0 -- -- 80
2019-08-13 08:00:00 11.3 3 Oeste 8 Oeste 0 -- -- 87
2019-08-13 07:00:00 11.2 7 Oeste 10 Oeste 0 -- -- 87
2019-08-13 06:00:00 11 3 Oeste 8 Oeste 0 -- -- 87
2019-08-13 05:00:00 11.1 3 Sur 8 Sudoeste 0 -- -- 89
2019-08-13 04:00:00 11.1 4 Noroeste 10 Sudoeste 0 -- -- 85
2019-08-13 03:00:00 12.3 4 Sudoeste 10 Sudoeste 0 -- -- 82
2019-08-13 02:00:00 12.9 5 Oeste 9 Noroeste 0 -- -- 82
2019-08-13 01:00:00 13.5 4 Oeste 8 Noroeste 0 -- -- 80
2019-08-13 00:00:00 14.4 4 Nordeste 11 Nordeste 0 -- -- 78
2019-08-12 23:00:00 15.2 5 Nordeste 13 Nordeste 0 -- -- 73
2019-08-12 22:00:00 15.2 3 Norte 14 Este 0 -- -- 72
2019-08-12 21:00:00 16 8 Nordeste 19 Nordeste 0 -- -- 69
2019-08-12 20:00:00 17.3 10 Nordeste 30 Norte 0 -- -- 61
2019-08-12 19:00:00 18 8 Norte 35 Nordeste 0 -- -- 61
2019-08-12 18:00:00 19.6 14 Nordeste 28 Nordeste 0 -- -- 56
2019-08-12 17:00:00 23.6 11 Norte 28 Norte 0 -- -- 42
2019-08-12 16:00:00 23.6 9 Norte 28 Norte 0 -- -- 40
2019-08-12 15:00:00 22 12 Nordeste 27 Nordeste 0 -- -- 46
2019-08-12 14:00:00 21.5 8 Norte 25 Noroeste 0 -- -- 44
2019-08-12 13:00:00 21.2 6 Nordeste 13 Nordeste 0 -- -- 49
2019-08-12 12:00:00 19.8 5 Nordeste 15 Nordeste 0 -- -- 53
2019-08-12 11:00:00 19.7 6 Este 15 Este 0 -- -- 57
2019-08-12 10:00:00 17.8 3 Nordeste 6 Este 0 -- -- 60
2019-08-12 09:00:00 13.7 3 Oeste 5 Oeste 0 -- -- 83
2019-08-12 08:00:00 10.8 0 Calma 5 Noroeste 0 -- -- 93
2019-08-12 07:00:00 9.7 0 Calma 4 Oeste 0 -- -- 93
2019-08-12 06:00:00 10.2 3 Noroeste 6 Noroeste 0 -- -- 92
2019-08-12 05:00:00 11.3 2 Noroeste 4 Oeste 0 -- -- 88
2019-08-12 04:00:00 12.3 0 Calma 8 Norte 0 -- -- 85
2019-08-12 03:00:00 13.8 3 Norte 9 Noroeste 0 -- -- 79
2019-08-12 02:00:00 14.3 0 Calma 8 Norte 0 -- -- 79
2019-08-12 01:00:00 15.2 4 Norte 11 Noroeste 0 -- -- 78
2019-08-12 00:00:00 15.2 6 Noroeste 16 Norte 0 -- -- 76
2019-08-11 23:00:00 16 7 Noroeste 17 Norte 0 -- -- 75
2019-08-11 22:00:00 16.4 9 Noroeste 19 Norte 0 -- -- 73
2019-08-11 21:00:00 17.4 8 Norte 19 Noroeste 0 -- -- 69
2019-08-11 20:00:00 19.6 6 Norte 23 Norte 0 -- -- 65
2019-08-11 19:00:00 21.1 9 Norte 29 Noroeste 0 -- -- 63
2019-08-11 18:00:00 21.9 13 Noroeste 29 Noroeste 0 -- -- 61
2019-08-11 17:00:00 23.5 9 Norte 23 Norte 0 -- -- 60
2019-08-11 16:00:00 23.3 10 Este 20 Este 0 -- -- 57
2019-08-11 15:00:00 22.8 5 Nordeste 18 Nordeste 0 -- -- 58
2019-08-11 14:00:00 21.3 12 Nordeste 21 Nordeste 0 -- -- 62
2019-08-11 13:00:00 20.4 7 Nordeste 18 Nordeste 0 -- -- 68
2019-08-11 12:00:00 20 3 Este 11 Este 0 -- -- 73
2019-08-11 11:00:00 18.1 3 Norte 8 Este 0 -- -- 80
2019-08-11 10:00:00 17.1 0 Calma 8 Noroeste 0 -- -- 84
2019-08-11 09:00:00 15.9 6 Noroeste 8 Noroeste 0 -- -- 92
2019-08-11 08:00:00 15.1 3 Sudeste 10 Este 0.6 -- -- 93
2019-08-11 07:00:00 15.3 0 Calma 9 Oeste 2.4 -- -- 91
2019-08-11 06:00:00 15.4 6 Noroeste 19 Noroeste 1.8 -- -- 89
2019-08-11 05:00:00 16.4 8 Norte 26 Norte 0 -- -- 80
2019-08-11 04:00:00 16.5 6 Noroeste 25 Norte 0 -- -- 81
2019-08-11 03:00:00 17.1 4 Nordeste 11 Nordeste 0 -- -- 77
2019-08-11 02:00:00 17.3 5 Nordeste 13 Nordeste 0 -- -- 76
2019-08-11 01:00:00 17.7 5 Nordeste 13 Nordeste 0 -- -- 75
2019-08-11 00:00:00 18 8 Nordeste 16 Norte 0 -- -- 75
2019-08-10 23:00:00 18.5 5 Norte 16 Nordeste 0 -- -- 74
2019-08-10 22:00:00 18.8 6 Norte 18 Noroeste 0 -- -- 70
2019-08-10 21:00:00 19.8 7 Norte 23 Nordeste 0 -- -- 64
2019-08-10 20:00:00 21.9 8 Norte 26 Nordeste 0 -- -- 57
2019-08-10 19:00:00 23.7 13 Nordeste 30 Norte 0 -- -- 54
2019-08-10 18:00:00 24.8 17 Nordeste 30 Nordeste 0 -- -- 52
2019-08-10 17:00:00 25.9 17 Nordeste 30 Este 0 -- -- 48
2019-08-10 16:00:00 28.5 8 Este 22 Nordeste 0 -- -- 41
2019-08-10 15:00:00 26.6 11 Nordeste 25 Este 0 -- -- 46
2019-08-10 14:00:00 26.7 6 Norte 17 Sudeste 0 -- -- 42
2019-08-10 13:00:00 25.5 7 Este 19 Sudeste 0 -- -- 51
2019-08-10 12:00:00 24.8 6 Este 13 Sudeste 0 -- -- 56
2019-08-10 11:00:00 22.8 4 Nordeste 11 Nordeste 0 -- -- 63
2019-08-10 10:00:00 18.9 3 Sur 6 Oeste 0 -- -- 71
2019-08-10 09:00:00 16.3 2 Noroeste 5 Sudoeste 0 -- -- 81
2019-08-10 08:00:00 14.8 4 Oeste 6 Oeste 0 -- -- 87
2019-08-10 07:00:00 13.9 0 Calma 3 Norte 0 -- -- 88
2019-08-10 06:00:00 14.6 0 Calma 4 Nordeste 0 -- -- 87
2019-08-10 05:00:00 14.2 0 Calma 6 Oeste 0 -- -- 86
2019-08-10 04:00:00 15.4 3 Noroeste 7 Noroeste 0 -- -- 80
2019-08-10 03:00:00 17.3 0 Calma 15 Oeste 0 -- -- 73
2019-08-10 02:00:00 18.6 8 Oeste 21 Oeste 0 -- -- 67
2019-08-10 01:00:00 19.9 10 Oeste 25 Oeste 0 -- -- 61
2019-08-10 00:00:00 20.7 12 Oeste 20 Oeste 0 -- -- 57
2019-08-09 23:00:00 20.2 3 Noroeste 24 Sur 0 -- -- 62
2019-08-09 22:00:00 21.6 9 Oeste 31 Sudoeste 0 -- -- 63
2019-08-09 21:00:00 22 17 Sudoeste 45 Sudoeste 0.2 -- -- 57
2019-08-09 20:00:00 27.8 16 Oeste 39 Oeste 0 -- -- 31
2019-08-09 19:00:00 29.9 16 Oeste 44 Sudoeste 0 -- -- 33
2019-08-09 18:00:00 31.2 20 Oeste 41 Sudoeste 0 -- -- 31
2019-08-09 17:00:00 29.4 14 Sudoeste 41 Sudoeste 0 -- -- 48
2019-08-09 16:00:00 30.4 14 Sudoeste 39 Sudoeste 0 -- -- 47
2019-08-09 15:00:00 27.6 15 Oeste 40 Oeste 0 -- -- 56
2019-08-09 14:00:00 28.2 19 Oeste 39 Oeste 0 -- -- 56
2019-08-09 13:00:00 28.1 19 Oeste 47 Sudoeste 0 -- -- 56
2019-08-09 12:00:00 27.9 18 Oeste 40 Oeste 0 -- -- 53
2019-08-09 11:00:00 28 11 Sudoeste 33 Sudoeste 0 -- -- 52
2019-08-09 10:00:00 27.6 12 Sudoeste 27 Oeste 0 -- -- 53
2019-08-09 09:00:00 26.5 6 Sudoeste 22 Sudoeste 0 -- -- 54
2019-08-09 08:00:00 24.3 8 Oeste 25 Sudoeste 0 -- -- 59
2019-08-09 07:00:00 24.8 15 Oeste 34 Oeste 0 -- -- 56
2019-08-09 06:00:00 25 13 Oeste 30 Sudoeste 0 -- -- 54
2019-08-09 05:00:00 25.2 14 Oeste 30 Oeste 0 -- -- 53
2019-08-09 04:00:00 26.1 12 Sudoeste 33 Sudoeste 0 -- -- 52
2019-08-09 03:00:00 26.1 11 Sudoeste 27 Sudoeste 0 -- -- 53
2019-08-09 02:00:00 26.8 17 Oeste 38 Sudoeste 0 -- -- 50
2019-08-09 01:00:00 27.8 9 Sudoeste 22 Oeste 0 -- -- 46
2019-08-09 00:00:00 28.7 10 Oeste 35 Sudoeste 0 -- -- 44
2019-08-08 23:00:00 28.9 10 Oeste 20 Oeste 0 -- -- 44
2019-08-08 22:00:00 30.3 6 Sudoeste 19 Sudoeste 0 -- -- 41
2019-08-08 21:00:00 32 5 Sudoeste 20 Sudoeste 0 -- -- 38
2019-08-08 20:00:00 33 9 Sudoeste 27 Sur 0 -- -- 38
2019-08-08 19:00:00 34.8 13 Sudoeste 32 Sudoeste 0 -- -- 35
2019-08-08 18:00:00 33.2 6 Sur 27 Oeste 0 -- -- 40
2019-08-08 17:00:00 32 11 Sudoeste 33 Oeste 0 -- -- 43
2019-08-08 16:00:00 30.6 16 Oeste 38 Sudoeste 0 -- -- 47
2019-08-08 15:00:00 30.3 19 Oeste 41 Oeste 0 -- -- 49
2019-08-08 14:00:00 28.9 17 Oeste 41 Oeste 0 -- -- 49
2019-08-08 13:00:00 29 17 Oeste 40 Sudoeste 0 -- -- 49
2019-08-08 12:00:00 28.3 19 Sudoeste 35 Oeste 0 -- -- 49
2019-08-08 11:00:00 26.4 17 Oeste 32 Oeste 0 -- -- 54
2019-08-08 10:00:00 25 17 Oeste 31 Oeste 0 -- -- 57
2019-08-08 09:00:00 23.3 17 Oeste 27 Sudoeste 0 -- -- 62
2019-08-08 08:00:00 21.2 11 Oeste 17 Oeste 0 -- -- 69
2019-08-08 07:00:00 20.9 8 Oeste 15 Sudoeste 0 -- -- 71
2019-08-08 06:00:00 21 5 Oeste 14 Oeste 0 -- -- 70
2019-08-08 05:00:00 20.9 9 Oeste 19 Sudoeste 0 -- -- 69
2019-08-08 04:00:00 20.3 6 Sudoeste 18 Sudoeste 0 -- -- 73
2019-08-08 03:00:00 19.6 0 Calma 19 Sur 0 -- -- 77
2019-08-08 02:00:00 20.4 12 Sudoeste 21 Sudoeste 0 -- -- 75
2019-08-08 01:00:00 20.8 9 Sudoeste 15 Sudoeste 0 -- -- 74
2019-08-08 00:00:00 19.9 4 Sur 27 Oeste 0.4 -- -- 83
2019-08-07 23:00:00 23.2 13 Oeste 25 Oeste 0.2 -- -- 62
2019-08-07 22:00:00 21.7 3 Oeste 6 Este 0 -- -- 75
2019-08-07 21:00:00 22.3 3 Sudeste 27 Oeste 0 -- -- 69
2019-08-07 20:00:00 25.2 22 Oeste 42 Oeste 0 -- -- 48
2019-08-07 19:00:00 29.3 20 Oeste 39 Oeste 0 -- -- 37
2019-08-07 18:00:00 29.7 14 Oeste 31 Oeste 0 -- -- 36
2019-08-07 17:00:00 29.8 13 Oeste 24 Sudoeste 0 -- -- 37
2019-08-07 16:00:00 31.4 3 Norte 13 Sur 0 -- -- 39
2019-08-07 15:00:00 30.3 5 Este 16 Nordeste 0 -- -- 43
2019-08-07 14:00:00 28.5 6 Sur 17 Este 0 -- -- 46
2019-08-07 13:00:00 26.8 4 Nordeste 14 Nordeste 0 -- -- 51
2019-08-07 12:00:00 26 4 Este 10 Sudeste 0 -- -- 59
2019-08-07 11:00:00 23.3 3 Nordeste 14 Sudeste 0 -- -- 67
2019-08-07 10:00:00 22.7 4 Este 9 Este 0 -- -- 69
2019-08-07 09:00:00 20.5 0 Calma 5 Oeste 0 -- -- 81
2019-08-07 08:00:00 17.5 3 Noroeste 4 Oeste 0 -- -- 91
2019-08-07 07:00:00 17.4 0 Calma 8 Oeste 0 -- -- 89
2019-08-07 06:00:00 17.5 2 Sudoeste 8 Oeste 0 -- -- 90
2019-08-07 05:00:00 17.5 2 Noroeste 8 Noroeste 0 -- -- 91
2019-08-07 04:00:00 17.6 6 Noroeste 8 Noroeste 0 -- -- 90
2019-08-07 03:00:00 17.7 2 Sur 11 Sudeste 0 -- -- 88
2019-08-07 02:00:00 17.8 8 Sudeste 11 Sudeste 0.2 -- -- 88
2019-08-07 01:00:00 19.1 5 Noroeste 8 Nordeste 0 -- -- 77
2019-08-07 00:00:00 19.4 4 Norte 10 Nordeste 0 -- -- 74
2019-08-06 23:00:00 19.9 3 Norte 15 Norte 0 -- -- 72
2019-08-06 22:00:00 20.7 8 Norte 17 Norte 0 -- -- 69
2019-08-06 21:00:00 22.7 5 Norte 23 Nordeste 0 -- -- 61
2019-08-06 20:00:00 24.8 11 Nordeste 24 Nordeste 0 -- -- 58
2019-08-06 19:00:00 27 11 Nordeste 28 Nordeste 0 -- -- 57
2019-08-06 18:00:00 28.4 12 Nordeste 33 Nordeste 0 -- -- 50
2019-08-06 17:00:00 30.3 14 Nordeste 26 Nordeste 0 -- -- 45
2019-08-06 16:00:00 31.3 4 Noroeste 10 Nordeste 0 -- -- 43
2019-08-06 15:00:00 30.4 3 Este 8 Este 0 -- -- 45
2019-08-06 14:00:00 29.2 4 Este 10 Este 0 -- -- 46
2019-08-06 13:00:00 26.5 6 Sudeste 12 Sudeste 0 -- -- 51
2019-08-06 12:00:00 24.2 3 Nordeste 9 Este 0 -- -- 59
2019-08-06 11:00:00 22.7 3 Sudeste 8 Sudeste 0 -- -- 64
2019-08-06 10:00:00 21 3 Nordeste 9 Noroeste 0 -- -- 70
2019-08-06 09:00:00 18.1 5 Noroeste 8 Oeste 0 -- -- 80
2019-08-06 08:00:00 14.3 3 Noroeste 7 Oeste 0 -- -- 93
2019-08-06 07:00:00 14.3 4 Oeste 9 Oeste 0 -- -- 92
2019-08-06 06:00:00 13.9 3 Noroeste 6 Oeste 0 -- -- 93
2019-08-06 05:00:00 14.6 0 Calma 7 Sudoeste 0 -- -- 91
2019-08-06 04:00:00 15.8 5 Oeste 7 Oeste 0 -- -- 89
2019-08-06 03:00:00 16.3 0 Calma 4 Norte 0 -- -- 88
2019-08-06 02:00:00 17.2 0 Calma 8 Este 0 -- -- 85
2019-08-06 01:00:00 17.9 2 Nordeste 6 Nordeste 0 -- -- 84
2019-08-06 00:00:00 18.8 2 Nordeste 12 Nordeste 0 -- -- 80
2019-08-05 23:00:00 20.2 4 Nordeste 16 Nordeste 0 -- -- 76
2019-08-05 22:00:00 21.2 4 Norte 20 Nordeste 0 -- -- 73
2019-08-05 21:00:00 22.9 11 Nordeste 25 Este 0 -- -- 68
2019-08-05 20:00:00 25.4 12 Nordeste 30 Nordeste 0 -- -- 60
2019-08-05 19:00:00 27.8 9 Norte 28 Nordeste 0 -- -- 54
2019-08-05 18:00:00 28.6 14 Nordeste 30 Nordeste 0 -- -- 52
2019-08-05 17:00:00 30.1 13 Nordeste 26 Este 0 -- -- 50
2019-08-05 16:00:00 30 12 Este 25 Este 0 -- -- 50
2019-08-05 15:00:00 28.8 12 Este 23 Nordeste 0 -- -- 52
2019-08-05 14:00:00 27.7 9 Este 21 Nordeste 0 -- -- 53
2019-08-05 13:00:00 26.1 9 Este 20 Este 0 -- -- 56
2019-08-05 12:00:00 24.6 6 Este 14 Este 0 -- -- 61
2019-08-05 11:00:00 23 4 Sudeste 9 Nordeste 0 -- -- 66
2019-08-05 10:00:00 21.5 3 Este 8 Oeste 0 -- -- 68
2019-08-05 09:00:00 17.8 4 Oeste 8 Oeste 0 -- -- 80
2019-08-05 08:00:00 14.4 4 Oeste 8 Sudoeste 0 -- -- 90
2019-08-05 07:00:00 13.9 4 Oeste 7 Oeste 0 -- -- 92
2019-08-05 06:00:00 14.8 4 Oeste 6 Oeste 0 -- -- 91
2019-08-05 05:00:00 15 0 Calma 5 Norte 0 -- -- 90
2019-08-05 04:00:00 15.5 2 Norte 7 Este 0 -- -- 88
2019-08-05 03:00:00 17.2 4 Nordeste 11 Nordeste 0 -- -- 83
2019-08-05 02:00:00 17.4 4 Este 10 Este 0 -- -- 82
2019-08-05 01:00:00 18.9 6 Nordeste 13 Nordeste 0 -- -- 76
2019-08-05 00:00:00 19.4 5 Este 11 Nordeste 0 -- -- 75
2019-08-04 23:00:00 19.5 7 Norte 16 Nordeste 0 -- -- 76
2019-08-04 22:00:00 19.7 6 Norte 17 Nordeste 0 -- -- 79
2019-08-04 21:00:00 21 8 Nordeste 26 Este 0 -- -- 74
2019-08-04 20:00:00 23 13 Nordeste 27 Nordeste 0 -- -- 67
2019-08-04 19:00:00 25.8 9 Nordeste 32 Nordeste 0 -- -- 61
2019-08-04 18:00:00 27 15 Nordeste 30 Nordeste 0 -- -- 58
2019-08-04 17:00:00 28.6 14 Nordeste 28 Nordeste 0 -- -- 55
2019-08-04 16:00:00 30.4 9 Nordeste 20 Este 0 -- -- 50
2019-08-04 15:00:00 29.1 5 Noroeste 14 Norte 0 -- -- 51
2019-08-04 14:00:00 26.7 7 Noroeste 17 Norte 0 -- -- 56
2019-08-04 13:00:00 25.9 5 Oeste 11 Oeste 0 -- -- 59
2019-08-04 12:00:00 22.6 3 Norte 10 Este 0 -- -- 68
2019-08-04 11:00:00 21 4 Nordeste 13 Nordeste 0 -- -- 74
2019-08-04 10:00:00 20.1 5 Nordeste 12 Nordeste 0 -- -- 77
2019-08-04 09:00:00 19.6 2 Norte 7 Norte 0 -- -- 80
2019-08-04 08:00:00 19.1 2 Norte 12 Nordeste 0 -- -- 82
2019-08-04 07:00:00 19 5 Nordeste 15 Nordeste 0 -- -- 83
2019-08-04 06:00:00 19.1 6 Nordeste 13 Nordeste 0 -- -- 83
2019-08-04 05:00:00 19.2 0 Calma 4 Nordeste 0 -- -- 85
2019-08-04 04:00:00 19.1 3 Norte 8 Noroeste 0 -- -- 84
2019-08-04 03:00:00 19 0 Calma 6 Norte 0 -- -- 85
2019-08-04 02:00:00 18.9 3 Norte 5 Norte 0 -- -- 85
2019-08-04 01:00:00 18.6 2 Noroeste 6 Norte 0 -- -- 86
2019-08-04 00:00:00 19.4 0 Calma 10 Nordeste 0 -- -- 83
2019-08-03 23:00:00 20.9 4 Norte 18 Nordeste 0 -- -- 77
2019-08-03 22:00:00 22.6 8 Nordeste 19 Este 0 -- -- 71
2019-08-03 21:00:00 25.8 8 Nordeste 29 Norte 0 -- -- 62
2019-08-03 20:00:00 28.3 16 Nordeste 32 Nordeste 0 -- -- 54
2019-08-03 19:00:00 31.2 12 Nordeste 31 Nordeste 0 -- -- 49
2019-08-03 18:00:00 34.3 9 Nordeste 24 Este 0 -- -- 34
2019-08-03 17:00:00 34.6 5 Este 13 Noroeste 0 -- -- 34
2019-08-03 16:00:00 33 4 Norte 12 Este 0 -- -- 39
2019-08-03 15:00:00 30.5 5 Nordeste 14 Este 0 -- -- 46
2019-08-03 14:00:00 29.2 4 Nordeste 10 Noroeste 0 -- -- 48
2019-08-03 13:00:00 26.1 4 Este 9 Sudeste 0 -- -- 55
2019-08-03 12:00:00 24.2 3 Este 8 Este 0 -- -- 63
2019-08-03 11:00:00 20.3 4 Nordeste 9 Nordeste 0 -- -- 75
2019-08-03 10:00:00 19.4 4 Este 7 Nordeste 0 -- -- 74
2019-08-03 09:00:00 17.8 2 Norte 6 Sudoeste 0 -- -- 79
2019-08-03 08:00:00 13.2 3 Noroeste 5 Oeste 0 -- -- 94
2019-08-03 07:00:00 13.1 4 Oeste 8 Sudoeste 0 -- -- 93
2019-08-03 06:00:00 13.2 3 Oeste 6 Oeste 0 -- -- 93
2019-08-03 05:00:00 13.8 3 Noroeste 6 Oeste 0 -- -- 91
2019-08-03 04:00:00 14.6 3 Oeste 6 Oeste 0 -- -- 91
2019-08-03 03:00:00 15.2 0 Calma 8 Oeste 0 -- -- 89
2019-08-03 02:00:00 15.7 3 Norte 7 Este 0 -- -- 90
2019-08-03 01:00:00 17.5 3 Este 6 Este 0 -- -- 86
2019-08-03 00:00:00 17.6 3 Norte 6 Norte 0 -- -- 84
2019-08-02 23:00:00 19.1 0 Calma 10 Nordeste 0 -- -- 80
2019-08-02 22:00:00 21.4 6 Nordeste 18 Nordeste 0 -- -- 70
2019-08-02 21:00:00 23.7 10 Nordeste 23 Nordeste 0 -- -- 61
2019-08-02 20:00:00 26.7 11 Nordeste 22 Nordeste 0 -- -- 51
2019-08-02 19:00:00 28.6 10 Nordeste 21 Nordeste 0 -- -- 46
2019-08-02 18:00:00 29.3 9 Nordeste 23 Nordeste 0 -- -- 45
2019-08-02 17:00:00 28.4 12 Este 25 Este 0 -- -- 52
2019-08-02 16:00:00 27.5 13 Este 25 Nordeste 0 -- -- 54
2019-08-02 15:00:00 27 10 Este 23 Nordeste 0 -- -- 56
2019-08-02 14:00:00 25.6 7 Nordeste 22 Nordeste 0 -- -- 56
2019-08-02 13:00:00 24.9 5 Nordeste 14 Este 0 -- -- 58
2019-08-02 12:00:00 23.9 6 Este 10 Nordeste 0 -- -- 59
2019-08-02 11:00:00 20.4 6 Nordeste 15 Este 0 -- -- 69
2019-08-02 10:00:00 19.4 7 Este 14 Este 0 -- -- 73
2019-08-02 09:00:00 18.3 3 Nordeste 8 Nordeste 0 -- -- 82
2019-08-02 08:00:00 17.1 2 Nordeste 7 Nordeste 0 -- -- 87
2019-08-02 07:00:00 17.1 0 Calma 8 Nordeste 0 -- -- 88
2019-08-02 06:00:00 17.1 2 Nordeste 6 Nordeste 0 -- -- 88
2019-08-02 05:00:00 17.2 3 Nordeste 8 Nordeste 0 -- -- 87
2019-08-02 04:00:00 17.2 3 Nordeste 6 Nordeste 0 -- -- 88
2019-08-02 03:00:00 17.2 3 Nordeste 8 Nordeste 0 -- -- 88
2019-08-02 02:00:00 17.3 3 Nordeste 9 Nordeste 0 -- -- 88
2019-08-02 01:00:00 17.5 0 Calma 14 Noroeste 0 -- -- 87
2019-08-02 00:00:00 17.4 6 Norte 15 Norte 0 -- -- 85
2019-08-01 23:00:00 17.7 6 Norte 18 Noroeste 0 -- -- 84
2019-08-01 22:00:00 17.9 9 Noroeste 15 Noroeste 0 -- -- 84
2019-08-01 21:00:00 18.7 5 Nordeste 18 Nordeste 0 -- -- 80
2019-08-01 20:00:00 19.2 9 Nordeste 19 Nordeste 0 -- -- 79
2019-08-01 19:00:00 19.9 10 Nordeste 26 Nordeste 0 -- -- 79
2019-08-01 18:00:00 21 12 Nordeste 22 Este 0 -- -- 76
2019-08-01 17:00:00 23 7 Norte 22 Noroeste 0 -- -- 72
2019-08-01 16:00:00 23.1 14 Noroeste 22 Noroeste 0 -- -- 70
2019-08-01 15:00:00 23.7 4 Nordeste 18 Noroeste 0 -- -- 69
2019-08-01 14:00:00 22.3 6 Noroeste 13 Oeste 0 -- -- 72
2019-08-01 13:00:00 20.1 3 Noroeste 6 Noroeste 0 -- -- 81
2019-08-01 12:00:00 19.1 0 Calma 4 Noroeste 0 -- -- 83
2019-08-01 11:00:00 18.2 0 Calma 6 Noroeste 0 -- -- 87
2019-08-01 10:00:00 17.4 4 Noroeste 7 Norte 0 -- -- 93
2019-08-01 09:00:00 15.9 5 Oeste 8 Sur 0.2 -- -- 96
2019-08-01 08:00:00 15.6 4 Noroeste 13 Oeste 1.6 -- -- 96
2019-08-01 07:00:00 15.3 9 Oeste 19 Sur 4 -- -- 96
2019-08-01 06:00:00 15.3 11 Oeste 26 Oeste 9.8 -- -- 95
2019-08-01 05:00:00 15.7 6 Sur 21 Noroeste 1 -- -- 91
2019-08-01 04:00:00 16.7 2 Norte 6 Norte 0 -- -- 83
2019-08-01 03:00:00 16.5 4 Noroeste 7 Norte 0 -- -- 83
2019-08-01 02:00:00 16.3 2 Norte 6 Norte 0 -- -- 83
2019-08-01 01:00:00 15.7 0 Calma 7 Nordeste 0 -- -- 84
2019-08-01 00:00:00 16.4 0 Calma 10 Nordeste 0 -- -- 79
2019-07-31 23:00:00 17.4 3 Norte 10 Norte 0 -- -- 77
2019-07-31 22:00:00 18.3 4 Nordeste 13 Nordeste 0 -- -- 73
2019-07-31 21:00:00 19.8 7 Nordeste 20 Nordeste 0 -- -- 67
2019-07-31 20:00:00 21.7 7 Norte 24 Nordeste 0 -- -- 61
2019-07-31 19:00:00 23.6 8 Norte 21 Nordeste 0 -- -- 55
2019-07-31 18:00:00 25.1 7 Norte 23 Nordeste 0 -- -- 50
2019-07-31 17:00:00 24.9 9 Este 20 Nordeste 0 -- -- 46
2019-07-31 16:00:00 24 8 Nordeste 22 Este 0 -- -- 46
2019-07-31 15:00:00 24.3 8 Nordeste 22 Este 0 -- -- 44
2019-07-31 14:00:00 23.3 9 Este 19 Nordeste 0 -- -- 45
2019-07-31 13:00:00 22.5 7 Este 18 Este 0 -- -- 47
2019-07-31 12:00:00 21.4 6 Este 16 Nordeste 0 -- -- 51
2019-07-31 11:00:00 18.5 6 Nordeste 11 Nordeste 0 -- -- 63
2019-07-31 10:00:00 17.5 3 Oeste 6 Oeste 0 -- -- 67
2019-07-31 09:00:00 13.5 2 Noroeste 7 Sudoeste 0 -- -- 80
2019-07-31 08:00:00 9.6 3 Sudoeste 7 Sudoeste 0 -- -- 93
2019-07-31 07:00:00 8.6 0 Calma 3 Oeste 0 -- -- 93
2019-07-31 06:00:00 8.9 0 Calma 4 Norte 0 -- -- 92
2019-07-31 05:00:00 9.9 2 Noroeste 4 Noroeste 0 -- -- 91
2019-07-31 04:00:00 10.6 0 Calma 4 Noroeste 0 -- -- 90
2019-07-31 03:00:00 11.2 0 Calma 6 Noroeste 0 -- -- 87
2019-07-31 02:00:00 11.8 0 Calma 6 Sudeste 0 -- -- 84
2019-07-31 01:00:00 14 3 Este 10 Nordeste 0 -- -- 76
2019-07-31 00:00:00 14.9 5 Nordeste 14 Este 0 -- -- 72
2019-07-30 23:00:00 15.4 7 Este 15 Este 0 -- -- 69
2019-07-30 22:00:00 16 4 Nordeste 26 Nordeste 0 -- -- 69
2019-07-30 21:00:00 17.6 12 Nordeste 28 Este 0 -- -- 63
2019-07-30 20:00:00 18.5 14 Nordeste 26 Nordeste 0 -- -- 60
2019-07-30 19:00:00 21.8 8 Norte 29 Este 0 -- -- 49
2019-07-30 18:00:00 22.2 15 Nordeste 33 Norte 0 -- -- 47
2019-07-30 17:00:00 24.8 8 Norte 26 Noroeste 0 -- -- 40
2019-07-30 16:00:00 24.6 9 Norte 24 Norte 0 -- -- 39
2019-07-30 15:00:00 22.6 9 Nordeste 21 Nordeste 0 -- -- 44
2019-07-30 14:00:00 21.7 4 Norte 22 Noroeste 0 -- -- 46
2019-07-30 13:00:00 21.7 5 Nordeste 13 Nordeste 0 -- -- 46
2019-07-30 12:00:00 19.6 5 Norte 15 Norte 0 -- -- 52
2019-07-30 11:00:00 19.1 5 Norte 15 Este 0 -- -- 54
2019-07-30 10:00:00 17.3 6 Nordeste 16 Nordeste 0 -- -- 65
2019-07-30 09:00:00 16.9 6 Nordeste 14 Este 0 -- -- 69
2019-07-30 08:00:00 15.2 7 Nordeste 13 Nordeste 0 -- -- 77
2019-07-30 07:00:00 15.7 5 Nordeste 11 Nordeste 0 -- -- 73
2019-07-30 06:00:00 15.7 5 Nordeste 14 Nordeste 0 -- -- 77
2019-07-30 05:00:00 15.8 7 Este 12 Nordeste 0 -- -- 77
2019-07-30 04:00:00 15.9 6 Nordeste 13 Nordeste 0 -- -- 78
2019-07-30 03:00:00 15.9 7 Nordeste 12 Nordeste 0 -- -- 78
2019-07-30 02:00:00 16.4 6 Nordeste 13 Nordeste 0 -- -- 76
2019-07-30 01:00:00 16.9 4 Nordeste 13 Nordeste 0 -- -- 75
2019-07-30 00:00:00 17 6 Noroeste 12 Noroeste 0 -- -- 77
2019-07-29 23:00:00 17.5 3 Norte 24 Nordeste 0 -- -- 74
2019-07-29 22:00:00 17.9 5 Norte 19 Nordeste 0 -- -- 72
2019-07-29 21:00:00 18.4 7 Norte 24 Nordeste 0 -- -- 69
2019-07-29 20:00:00 19.6 6 Norte 35 Nordeste 0 -- -- 67
2019-07-29 19:00:00 22.3 14 Nordeste 32 Nordeste 0 -- -- 62
2019-07-29 18:00:00 23.6 12 Norte 42 Nordeste 0 -- -- 59
2019-07-29 17:00:00 26.8 18 Nordeste 40 Oeste 0 -- -- 51
2019-07-29 16:00:00 31.1 22 Oeste 40 Oeste 0 -- -- 30
2019-07-29 15:00:00 30.6 16 Oeste 36 Oeste 0 -- -- 29
2019-07-29 14:00:00 29.4 16 Oeste 38 Oeste 0 -- -- 28
2019-07-29 13:00:00 29.1 6 Norte 17 Oeste 0 -- -- 26
2019-07-29 12:00:00 25.9 5 Nordeste 15 Este 0 -- -- 45
2019-07-29 11:00:00 23.3 5 Este 9 Sudeste 0 -- -- 54
2019-07-29 10:00:00 20.9 3 Este 7 Sudeste 0 -- -- 60
2019-07-29 09:00:00 17.9 0 Calma 6 Oeste 0 -- -- 75
2019-07-29 08:00:00 11.6 2 Oeste 5 Oeste 0 -- -- 96
2019-07-29 07:00:00 10.5 3 Noroeste 4 Oeste 0 -- -- 95
2019-07-29 06:00:00 11.1 0 Calma 5 Sudeste 0 -- -- 95
2019-07-29 05:00:00 11.7 3 Sudeste 5 Sudeste 0 -- -- 94
2019-07-29 04:00:00 12.1 0 Calma 6 Oeste 0 -- -- 93
2019-07-29 03:00:00 12.8 0 Calma 4 Oeste 0 -- -- 91
2019-07-29 02:00:00 14.1 2 Sudoeste 6 Sudoeste 0 -- -- 88
2019-07-29 01:00:00 14.7 3 Oeste 5 Noroeste 0 -- -- 86
2019-07-29 00:00:00 15.9 2 Nordeste 5 Este 0 -- -- 82
2019-07-28 23:00:00 18.1 0 Calma 11 Nordeste 0 -- -- 72
2019-07-28 22:00:00 20.1 5 Este 19 Nordeste 0 -- -- 64
2019-07-28 21:00:00 22.5 9 Nordeste 23 Nordeste 0 -- -- 54
2019-07-28 20:00:00 24.5 11 Nordeste 22 Nordeste 0 -- -- 47
2019-07-28 19:00:00 26.6 8 Nordeste 22 Nordeste 0 -- -- 40
2019-07-28 18:00:00 26.5 6 Nordeste 17 Norte 0 -- -- 38
2019-07-28 17:00:00 26.2 5 Sudeste 17 Sudeste 0 -- -- 40
2019-07-28 16:00:00 25.5 6 Sudoeste 14 Sudoeste 0 -- -- 42
2019-07-28 15:00:00 24.5 5 Norte 15 Nordeste 0 -- -- 45
2019-07-28 14:00:00 22.6 7 Sudeste 19 Nordeste 0 -- -- 48
2019-07-28 13:00:00 22.6 3 Nordeste 14 Noroeste 0 -- -- 48
2019-07-28 12:00:00 21.6 8 Noroeste 15 Norte 0 -- -- 51
2019-07-28 11:00:00 20.6 3 Oeste 12 Noroeste 0 -- -- 60
2019-07-28 10:00:00 18.3 3 Oeste 9 Sudoeste 0 -- -- 68
2019-07-28 09:00:00 13.6 3 Noroeste 8 Sur 0 -- -- 88
2019-07-28 08:00:00 12.1 4 Sudoeste 9 Norte 0 -- -- 93
2019-07-28 07:00:00 11.5 0 Calma 0 Calma 0 -- -- 94
2019-07-28 06:00:00 11.8 0 Calma 5 Oeste 0 -- -- 93
2019-07-28 05:00:00 12 3 Noroeste 9 Oeste 0 -- -- 91
2019-07-28 04:00:00 12.4 0 Calma 6 Noroeste 0 -- -- 90
2019-07-28 03:00:00 12.5 0 Calma 8 Oeste 0 -- -- 89
2019-07-28 02:00:00 14.3 5 Noroeste 8 Noroeste 0 -- -- 83
2019-07-28 01:00:00 13.7 0 Calma 8 Norte 0 -- -- 85
2019-07-28 00:00:00 14.9 5 Norte 9 Norte 0 -- -- 78
2019-07-27 23:00:00 15.4 3 Norte 12 Noroeste 0 -- -- 81
2019-07-26 12:00:00 -- -- -- -- -- -- -- -- --
2019-07-26 11:00:00 18.8 5 Noroeste 15 Nordeste 0 -- -- 88
2019-07-26 10:00:00 19.3 5 Norte 13 Nordeste 0 -- -- 88
2019-07-26 09:00:00 19.3 3 Nordeste 15 Sudeste 0 -- -- 92
2019-07-26 08:00:00 18.3 13 Sudeste 28 Nordeste 5.2 -- -- 95
2019-07-26 07:00:00 18.7 8 Oeste 14 Oeste 0 -- -- 92
2019-07-26 06:00:00 18.5 8 Este 15 Este 0.2 -- -- 93
2019-07-26 05:00:00 18.9 0 Calma 10 Este 0.2 -- -- 92
2019-07-26 04:00:00 18.7 2 Sur 9 Nordeste 0.4 -- -- 92
2019-07-26 03:00:00 19.1 4 Norte 14 Noroeste 1 -- -- 88
2019-07-26 02:00:00 19.7 9 Noroeste 15 Noroeste 0 -- -- 83
2019-07-26 01:00:00 20.4 6 Norte 12 Norte 0 -- -- 85
2019-07-26 00:00:00 20.6 7 Noroeste 12 Norte 0 -- -- 84
2019-07-25 23:00:00 20.9 4 Norte 12 Nordeste 0 -- -- 84
2019-07-25 22:00:00 21.2 4 Norte 19 Noroeste 0 -- -- 85
2019-07-25 21:00:00 22.1 12 Norte 31 Noroeste 0.4 -- -- 82
2019-07-25 20:00:00 25.2 12 Nordeste 31 Norte 0 -- -- 70
2019-07-25 19:00:00 28.4 16 Nordeste 42 Sur 0 -- -- 61
2019-07-25 18:00:00 36.1 9 Sur 18 Sur 0 -- -- 31
2019-07-25 17:00:00 36.1 4 Sudoeste 19 Sudoeste 0 -- -- 30
2019-07-25 16:00:00 38 5 Sur 18 Sudoeste 0 -- -- 29
2019-07-25 15:00:00 36.8 5 Oeste 14 Sudoeste 0 -- -- 31
2019-07-25 14:00:00 35.4 4 Sur 19 Sur 0 -- -- 31
2019-07-25 13:00:00 33.2 7 Oeste 19 Sudeste 0 -- -- 33
2019-07-25 12:00:00 32.4 5 Sudeste 13 Oeste 0 -- -- 42
2019-07-25 11:00:00 30.3 3 Nordeste 5 Nordeste 0 -- -- 46
2019-07-25 10:00:00 26.6 0 Calma 5 Este 0 -- -- 60
2019-07-25 09:00:00 22.1 2 Norte 4 Noroeste 0 -- -- 72
2019-07-25 08:00:00 16.7 0 Calma 6 Oeste 0 -- -- 93
2019-07-25 07:00:00 15.9 2 Oeste 5 Oeste 0 -- -- 94
2019-07-25 06:00:00 16.4 0 Calma 4 Noroeste 0 -- -- 93
2019-07-25 05:00:00 17 3 Noroeste 5 Sudoeste 0 -- -- 91
2019-07-25 04:00:00 17.8 3 Oeste 9 Sur 0 -- -- 89
2019-07-25 03:00:00 18.1 2 Noroeste 4 Noroeste 0 -- -- 89
2019-07-25 02:00:00 18.8 0 Calma 6 Sudoeste 0 -- -- 85
2019-07-25 01:00:00 20 4 Oeste 15 Sudeste 0 -- -- 84
2019-07-25 00:00:00 20.7 3 Norte 6 Norte 0 -- -- 84
2019-07-24 23:00:00 23.3 0 Calma 10 Sudeste 0 -- -- 74
2019-07-24 22:00:00 25.5 7 Sudeste 17 Este 0 -- -- 64
2019-07-24 21:00:00 25.9 7 Sudeste 13 Sudeste 0 -- -- 66
2019-07-24 20:00:00 26.9 10 Oeste 22 Oeste 0 -- -- 59
2019-07-24 19:00:00 27.2 4 Sudoeste 13 Sudoeste 0 -- -- 66
2019-07-24 18:00:00 23.3 11 Sudeste 47 Sur 4.2 -- -- 69
2019-07-24 17:00:00 35.8 8 Sudeste 34 Sudeste 0 -- -- 29
2019-07-24 16:00:00 39.3 11 Sudeste 31 Este 0 -- -- 26
2019-07-24 15:00:00 37.9 11 Este 25 Sudeste 0 -- -- 27
2019-07-24 14:00:00 36.1 7 Este 16 Sudeste 0 -- -- 30
2019-07-24 13:00:00 33.8 4 Noroeste 9 Norte 0 -- -- 39
2019-07-24 12:00:00 29.9 4 Nordeste 9 Norte 0 -- -- 47
2019-07-24 11:00:00 28.3 2 Nordeste 6 Nordeste 0 -- -- 52
2019-07-24 10:00:00 24.9 2 Oeste 9 Norte 0 -- -- 63
2019-07-24 09:00:00 21.7 4 Norte 6 Norte 0 -- -- 75
2019-07-24 08:00:00 17.6 0 Calma 7 Oeste 0 -- -- 90
2019-07-24 07:00:00 16.1 0 Calma 6 Sudoeste 0 -- -- 92
2019-07-24 06:00:00 17 2 Oeste 6 Noroeste 0 -- -- 91
2019-07-24 05:00:00 17.4 4 Noroeste 8 Oeste 0 -- -- 91
2019-07-24 04:00:00 18.5 3 Oeste 9 Sudeste 0 -- -- 88
2019-07-24 03:00:00 19.4 0 Calma 7 Nordeste 0 -- -- 87
2019-07-24 02:00:00 20.4 4 Norte 8 Oeste 0 -- -- 81
2019-07-24 01:00:00 21.1 5 Oeste 12 Sudoeste 0 -- -- 80
2019-07-24 00:00:00 22.3 3 Norte 14 Nordeste 0.2 -- -- 74
2019-07-23 23:00:00 21.8 4 Sur 17 Oeste 0 -- -- 74
2019-07-23 22:00:00 22.9 8 Nordeste 23 Sudeste 0 -- -- 69
2019-07-23 21:00:00 22.2 5 Norte 30 Oeste 0 -- -- 76
2019-07-23 20:00:00 23.4 10 Sudeste 18 Oeste 0 -- -- 67
2019-07-23 19:00:00 21.5 5 Este 59 Sudoeste 2.4 -- -- 76
2019-07-23 18:00:00 37 10 Oeste 26 Oeste 0 -- -- 26
2019-07-23 17:00:00 39.4 6 Sur 36 Sudeste 0 -- -- 25
2019-07-23 16:00:00 38.5 9 Sudoeste 22 Sudoeste 0 -- -- 25
2019-07-23 15:00:00 38.1 9 Sudeste 26 Sudeste 0 -- -- 27
2019-07-23 14:00:00 35.9 10 Sudeste 27 Sur 0 -- -- 29
2019-07-23 13:00:00 34.3 11 Sudeste 27 Sudeste 0 -- -- 33
2019-07-23 12:00:00 32.9 8 Sur 21 Sudeste 0 -- -- 35
2019-07-23 11:00:00 31.4 6 Oeste 17 Oeste 0 -- -- 38
2019-07-23 10:00:00 30.5 3 Este 16 Noroeste 0 -- -- 37
2019-07-23 09:00:00 25 7 Oeste 18 Sudoeste 0 -- -- 51
2019-07-23 08:00:00 19.6 3 Este 8 Noroeste 0 -- -- 70
2019-07-23 07:00:00 17.6 5 Oeste 9 Oeste 0 -- -- 70
2019-07-23 06:00:00 17.8 5 Este 12 Oeste 0 -- -- 73
2019-07-23 05:00:00 19.9 6 Oeste 13 Sudoeste 0 -- -- 62
2019-07-23 04:00:00 21 3 Nordeste 9 Noroeste 0 -- -- 59
2019-07-23 03:00:00 22.8 0 Calma 11 Noroeste 0 -- -- 56
2019-07-23 02:00:00 24.4 3 Norte 20 Sudoeste 0 -- -- 50
2019-07-23 01:00:00 24 0 Calma 9 Oeste 0 -- -- 50
2019-07-23 00:00:00 25.6 3 Norte 12 Sur 0 -- -- 45
2019-07-22 23:00:00 28.5 3 Oeste 12 Nordeste 0 -- -- 38
2019-07-22 22:00:00 30.8 0 Calma 24 Este 0 -- -- 34
2019-07-22 21:00:00 34.6 8 Sudeste 26 Sudeste 0 -- -- 28
2019-07-22 20:00:00 36.8 11 Sudeste 28 Sudeste 0 -- -- 27
2019-07-22 19:00:00 38 13 Sudeste 29 Sudeste 0 -- -- 28
2019-07-22 18:00:00 38.5 15 Sudeste 28 Sudeste 0 -- -- 29
2019-07-22 17:00:00 38.9 14 Sudeste 24 Sudeste 0 -- -- 29
2019-07-22 16:00:00 39 9 Sudeste 19 Sudeste 0 -- -- 28
2019-07-22 15:00:00 36.2 6 Este 15 Este 0 -- -- 31
2019-07-22 14:00:00 34.5 4 Nordeste 12 Norte 0 -- -- 37
2019-07-22 13:00:00 32.4 4 Norte 10 Noroeste 0 -- -- 42
2019-07-22 12:00:00 29.1 3 Norte 9 Nordeste 0 -- -- 54
2019-07-22 11:00:00 26.2 4 Nordeste 10 Este 0 -- -- 62
2019-07-22 10:00:00 25.1 3 Noroeste 7 Noroeste 0 -- -- 65
2019-07-22 09:00:00 21 3 Nordeste 8 Nordeste 0 -- -- 80
2019-07-22 08:00:00 19.8 3 Nordeste 8 Nordeste 0 -- -- 84
2019-07-22 07:00:00 19.8 2 Norte 9 Nordeste 0 -- -- 84
2019-07-22 06:00:00 19.7 2 Norte 9 Nordeste 0 -- -- 84
2019-07-22 05:00:00 19.7 5 Nordeste 14 Nordeste 0 -- -- 84
2019-07-22 04:00:00 20 3 Nordeste 11 Nordeste 0 -- -- 83
2019-07-22 03:00:00 20.1 3 Norte 10 Nordeste 0 -- -- 83
2019-07-22 02:00:00 20.3 3 Norte 17 Nordeste 0 -- -- 82
2019-07-22 01:00:00 20.5 6 Nordeste 11 Nordeste 0 -- -- 81
2019-07-22 00:00:00 20.9 3 Norte 8 Noroeste 0 -- -- 80
2019-07-21 23:00:00 21.2 2 Nordeste 15 Nordeste 0 -- -- 79
2019-07-21 22:00:00 21.6 6 Norte 24 Nordeste 0 -- -- 77
2019-07-21 21:00:00 22.9 10 Nordeste 30 Nordeste 0 -- -- 72
2019-07-21 20:00:00 25.2 12 Nordeste 32 Nordeste 0 -- -- 66
2019-07-21 19:00:00 28.2 17 Nordeste 31 Nordeste 0 -- -- 57
2019-07-21 18:00:00 31.9 10 Nordeste 22 Nordeste 0 -- -- 48
2019-07-21 17:00:00 32.8 6 Nordeste 18 Nordeste 0 -- -- 45
2019-07-21 16:00:00 31 4 Nordeste 26 Norte 0 -- -- 49
2019-07-21 15:00:00 29.9 11 Noroeste 23 Oeste 0 -- -- 50
2019-07-21 14:00:00 28.7 4 Sudoeste 13 Noroeste 0 -- -- 52
2019-07-21 13:00:00 27.2 4 Este 11 Este 0 -- -- 55
2019-07-21 12:00:00 26.2 5 Este 12 Este 0 -- -- 58
2019-07-21 11:00:00 23.4 6 Este 13 Este 0 -- -- 67
2019-07-21 10:00:00 22.1 5 Nordeste 12 Nordeste 0 -- -- 71
2019-07-21 09:00:00 20 6 Nordeste 12 Este 0 -- -- 79
2019-07-21 08:00:00 19.4 4 Nordeste 11 Este 0 -- -- 80
2019-07-21 07:00:00 19.3 3 Nordeste 9 Nordeste 0 -- -- 80
2019-07-21 06:00:00 19.2 6 Nordeste 12 Nordeste 0 -- -- 79
2019-07-21 05:00:00 19.5 6 Este 10 Nordeste 0 -- -- 79
2019-07-21 04:00:00 19.6 5 Nordeste 14 Nordeste 0 -- -- 78
2019-07-21 03:00:00 19.7 7 Nordeste 16 Nordeste 0 -- -- 77
2019-07-21 02:00:00 19.8 4 Nordeste 12 Nordeste 0 -- -- 76
2019-07-21 01:00:00 20 4 Norte 16 Nordeste 0 -- -- 77
2019-07-21 00:00:00 20.2 5 Norte 17 Nordeste 0 -- -- 77